CheckWX is a tool to help pilots better visualize weather data.  It is not intended as a substitute for an official pre-flight weather briefing.

21:05:21 UTC

KBHB METAR
Hancock County-Bar Harbor Airport
Bar Harbor, Maine, USA
Current

9 mins ago

KBHB 182056Z AUTO 36007KT 4SM -SN OVC050 M07/M09 A2987 RMK AO2 SLP118 P0000 60000 T10671094 56002 FZRANO
Observed
Feb-18 @ 20:56 UTC
Wind
  • 360° at 7 KTS
Visibility
4 SM
Flight Rules
MVFR
Conditions
Light Snow
Cloud Levels
  • Overcast at 5,000' AGL
Temperature
-7°C / 19°F
Dewpoint
-9°C / 16°F
Humidity
86%
Altimeter
29.87" Hg
Pressure
1011.8 hPa
Current Rain
0.01"
Previous

51 mins ago

KBHB 182014Z AUTO 34009KT 4SM -SN FEW036 OVC055 M06/M10 A2987 RMK AO2 P0000 FZRANO
Observed
Feb-18 @ 20:14 UTC
Wind
  • 340° at 9 KTS
Visibility
4 SM
Flight Rules
MVFR
Conditions
Light Snow
Cloud Levels
  • Few at 3,600' AGL
  • Overcast at 5,500' AGL
Temperature
-6°C / 21°F
Dewpoint
-10°C / 14°F
Humidity
74%
Altimeter
29.87" Hg
Pressure
1011.52 hPa
Current Rain
0.01"
Previous

1 hour ago

KBHB 181956Z AUTO 35007KT 2SM -SN BKN038 BKN045 OVC050 M06/M09 A2987 RMK AO2 VIS 1 1/4V3 SLP119 P0000 T10611094 FZRANO
Observed
Feb-18 @ 19:56 UTC
Wind
  • 350° at 7 KTS
Visibility
2 SM
Flight Rules
IFR
Conditions
Light Snow
Cloud Levels
  • Broken at 3,800' AGL
  • Broken at 4,500' AGL
  • Overcast at 5,000' AGL
Temperature
-6°C / 21°F
Dewpoint
-9°C / 16°F
Humidity
80%
Altimeter
29.87" Hg
Pressure
1011.9 hPa
Current Rain
0.01"